createdAt,value
2023-05-19T00:01:50.647Z,1.70
2023-05-19T00:04:17.518Z,1.58
2023-05-19T00:06:48.378Z,1.63
2023-05-19T00:09:18.158Z,1.85
2023-05-19T00:11:44.959Z,1.52
2023-05-19T00:14:11.739Z,1.70
2023-05-19T00:16:38.592Z,1.58
2023-05-19T00:19:06.644Z,2.03
2023-05-19T00:21:33.262Z,1.75
2023-05-19T00:23:59.917Z,1.70
2023-05-19T00:26:27.201Z,1.80
2023-05-19T00:28:54.048Z,2.30
2023-05-19T00:31:20.579Z,1.50
2023-05-19T00:33:47.088Z,1.55
2023-05-19T00:36:13.566Z,1.45
2023-05-19T00:38:40.045Z,1.75
2023-05-19T00:41:07.080Z,1.90
2023-05-19T00:43:36.549Z,1.65
2023-05-19T00:46:03.698Z,2.00
2023-05-19T00:48:30.349Z,1.52
2023-05-19T00:51:02.282Z,2.10
2023-05-19T00:53:29.407Z,2.17
2023-05-19T00:55:56.457Z,1.50
2023-05-19T00:58:23.821Z,1.55
2023-05-19T01:00:50.693Z,1.90
2023-05-19T01:03:20.634Z,1.88
2023-05-19T01:05:53.834Z,1.50
2023-05-19T01:08:20.604Z,1.70
2023-05-19T01:10:47.201Z,1.70
2023-05-19T01:13:13.943Z,1.60
2023-05-19T01:16:07.561Z,1.38
2023-05-19T01:19:16.064Z,1.50
2023-05-19T01:21:56.038Z,1.63
2023-05-19T01:24:34.675Z,1.67
2023-05-19T01:27:13.329Z,1.40
2023-05-19T01:29:54.148Z,1.50
2023-05-19T01:32:23.805Z,1.50
2023-05-19T01:34:51.205Z,1.40
2023-05-19T01:37:19.560Z,1.35
2023-05-19T01:39:46.639Z,1.33
2023-05-19T01:42:15.242Z,1.30
2023-05-19T01:44:42.317Z,1.40
2023-05-19T01:47:09.774Z,1.40
2023-05-19T01:49:36.355Z,1.20
2023-05-19T01:52:02.891Z,1.38
2023-05-19T01:54:29.374Z,1.45
2023-05-19T01:57:01.906Z,1.67
2023-05-19T01:59:42.747Z,1.55
2023-05-19T02:02:26.381Z,1.33
2023-05-19T02:05:03.034Z,1.50
2023-05-19T02:07:52.091Z,1.40
2023-05-19T02:10:31.360Z,1.42
2023-05-19T02:13:04.603Z,1.42
2023-05-19T02:15:38.881Z,1.70
2023-05-19T02:18:06.398Z,1.52
2023-05-19T02:20:33.212Z,1.67
2023-05-19T02:22:59.914Z,1.92
2023-05-19T02:25:27.224Z,1.52
2023-05-19T02:27:55.026Z,1.60
2023-05-19T02:30:21.584Z,1.65
2023-05-19T02:32:48.168Z,2.03
2023-05-19T02:35:14.793Z,1.90
2023-05-19T02:37:41.415Z,1.80
2023-05-19T02:40:08.531Z,1.33
2023-05-19T02:42:34.934Z,2.05
2023-05-19T02:45:01.881Z,1.65
2023-05-19T02:47:28.413Z,1.70
2023-05-19T02:49:55.072Z,1.70
2023-05-19T02:52:21.585Z,2.00
2023-05-19T02:54:48.130Z,1.60
2023-05-19T02:57:14.577Z,2.15
2023-05-19T02:59:41.105Z,1.77
2023-05-19T03:02:07.773Z,1.77
2023-05-19T03:04:41.441Z,1.80
2023-05-19T03:07:09.914Z,1.83
2023-05-19T03:09:40.123Z,1.83
2023-05-19T03:12:07.492Z,1.98
2023-05-19T03:14:37.539Z,1.95
2023-05-19T03:17:04.394Z,1.80
2023-05-19T03:19:32.563Z,1.58
2023-05-19T03:21:59.280Z,1.85
2023-05-19T03:24:25.765Z,1.80
2023-05-19T03:26:52.356Z,1.67
2023-05-19T03:29:18.836Z,1.90
2023-05-19T03:31:45.444Z,1.80
2023-05-19T03:34:11.958Z,1.98
2023-05-19T03:36:41.284Z,1.83
2023-05-19T03:39:07.887Z,2.25
2023-05-19T03:41:34.370Z,1.80
2023-05-19T03:44:01.310Z,1.83
2023-05-19T03:46:27.823Z,1.83
2023-05-19T03:48:54.431Z,2.10
2023-05-19T03:51:21.301Z,1.85
2023-05-19T03:53:48.739Z,2.10
2023-05-19T03:56:18.047Z,2.05
2023-05-19T03:58:45.075Z,1.60
2023-05-19T04:01:11.620Z,2.13
2023-05-19T04:03:38.173Z,1.85
2023-05-19T04:06:04.708Z,2.63
2023-05-19T04:08:31.929Z,2.80
2023-05-19T04:10:58.480Z,2.78
2023-05-19T04:13:24.942Z,2.80
2023-05-19T04:15:51.627Z,2.20
2023-05-19T04:18:18.146Z,2.17
2023-05-19T04:20:44.602Z,2.42
2023-05-19T04:23:11.103Z,2.30
2023-05-19T04:25:38.115Z,2.70
2023-05-19T04:28:04.592Z,2.40
2023-05-19T04:30:34.644Z,2.20
2023-05-19T04:33:03.840Z,2.03
2023-05-19T04:35:30.709Z,2.03
2023-05-19T04:37:57.178Z,2.17
2023-05-19T04:40:23.873Z,2.10
2023-05-19T04:42:52.269Z,2.45
2023-05-19T04:45:19.103Z,2.10
2023-05-19T04:47:48.007Z,2.22
2023-05-19T04:50:16.346Z,2.00
2023-05-19T04:52:45.385Z,2.15
2023-05-19T04:55:13.196Z,2.55
2023-05-19T04:57:40.197Z,2.38
2023-05-19T05:00:09.015Z,2.38
2023-05-19T05:02:36.121Z,1.80
2023-05-19T05:05:02.852Z,1.88
2023-05-19T05:07:31.614Z,2.20
2023-05-19T05:09:58.869Z,1.95
2023-05-19T05:12:25.714Z,2.53
2023-05-19T05:14:52.494Z,1.80
2023-05-19T05:17:19.392Z,1.95
2023-05-19T05:19:46.310Z,2.45
2023-05-19T05:22:13.141Z,2.30
2023-05-19T05:24:39.864Z,2.00
2023-05-19T05:27:08.160Z,2.10
2023-05-19T05:29:35.332Z,1.92
2023-05-19T05:32:02.053Z,1.83
2023-05-19T05:34:28.685Z,1.92
2023-05-19T05:36:55.233Z,2.03
2023-05-19T05:39:21.706Z,1.90
2023-05-19T05:41:48.151Z,1.90
2023-05-19T05:44:14.625Z,1.70
2023-05-19T05:46:41.440Z,2.33
2023-05-19T05:49:08.373Z,1.90
2023-05-19T05:51:35.994Z,2.00
2023-05-19T05:54:03.028Z,1.83
2023-05-19T05:56:29.911Z,1.73
2023-05-19T05:58:56.725Z,1.63
2023-05-19T06:01:24.136Z,1.83
2023-05-19T06:03:50.972Z,1.90
2023-05-19T06:06:17.570Z,1.92
2023-05-19T06:08:44.043Z,1.77
2023-05-19T06:11:10.707Z,1.90
2023-05-19T06:13:37.702Z,1.70
2023-05-19T06:16:04.848Z,2.00
2023-05-19T06:18:31.697Z,2.10
2023-05-19T06:20:58.253Z,2.10
2023-05-19T06:23:26.812Z,1.95
2023-05-19T06:25:53.442Z,2.00
2023-05-19T06:28:19.928Z,2.00
2023-05-19T06:30:46.479Z,2.08
2023-05-19T06:33:13.047Z,2.00
2023-05-19T06:35:39.562Z,1.80
2023-05-19T06:38:06.131Z,1.50
2023-05-19T06:40:32.796Z,1.60
2023-05-19T06:42:59.402Z,1.80
2023-05-19T06:45:26.009Z,1.83
2023-05-19T06:47:54.094Z,1.90
2023-05-19T06:50:20.616Z,2.05
2023-05-19T06:52:47.159Z,2.05
2023-05-19T06:55:13.880Z,1.60
2023-05-19T06:57:40.479Z,2.10
2023-05-19T07:00:11.528Z,1.55
2023-05-19T07:02:41.488Z,1.92
2023-05-19T07:05:09.196Z,1.60
2023-05-19T07:07:35.763Z,2.00
2023-05-19T07:10:02.220Z,1.80
2023-05-19T07:12:28.698Z,1.83
2023-05-19T07:14:55.255Z,2.10
2023-05-19T07:17:21.766Z,1.90
2023-05-19T07:19:48.236Z,1.90
2023-05-19T07:22:14.873Z,1.67
2023-05-19T07:24:41.402Z,1.95
2023-05-19T07:27:07.993Z,1.90
2023-05-19T07:29:34.469Z,1.80
2023-05-19T07:32:01.003Z,1.77
2023-05-19T07:34:27.611Z,1.80
2023-05-19T07:36:54.226Z,1.80
2023-05-19T07:39:21.192Z,1.85
2023-05-19T07:41:52.676Z,1.80
2023-05-19T07:44:19.327Z,1.65
2023-05-19T07:46:46.030Z,1.83
2023-05-19T07:49:12.605Z,1.70
2023-05-19T07:51:39.099Z,1.63
2023-05-19T07:54:05.560Z,2.03
2023-05-19T07:56:32.088Z,2.10
2023-05-19T07:58:58.815Z,1.98
2023-05-19T08:01:26.146Z,1.80
2023-05-19T08:03:53.194Z,2.13
2023-05-19T08:06:19.770Z,1.63
2023-05-19T08:08:46.377Z,2.05
2023-05-19T08:11:12.897Z,1.38
2023-05-19T08:13:39.641Z,1.90
2023-05-19T08:16:06.347Z,1.77
2023-05-19T08:18:32.998Z,1.40
2023-05-19T08:20:59.549Z,1.20
2023-05-19T08:23:26.023Z,1.30
2023-05-19T08:25:52.505Z,1.00
2023-05-19T08:28:19.176Z,1.17
2023-05-19T08:30:46.248Z,1.35
2023-05-19T08:33:12.835Z,1.20
2023-05-19T08:35:39.458Z,1.60
2023-05-19T08:38:05.947Z,1.27
2023-05-19T08:40:35.081Z,1.30
2023-05-19T08:43:01.901Z,1.20
2023-05-19T08:45:28.714Z,1.10
2023-05-19T08:47:56.205Z,1.70
2023-05-19T08:50:30.718Z,1.30
2023-05-19T08:55:34.009Z,1.10
2023-05-19T08:58:04.976Z,1.20
2023-05-19T09:00:33.005Z,0.98
2023-05-19T09:03:17.401Z,1.00
2023-05-19T09:05:46.393Z,1.35
2023-05-19T09:08:13.452Z,1.10
2023-05-19T09:10:39.983Z,1.73
2023-05-19T09:13:06.864Z,1.10
2023-05-19T09:15:36.700Z,1.40
2023-05-19T09:18:14.075Z,1.70
2023-05-19T09:20:43.078Z,1.48
2023-05-19T09:23:17.463Z,1.90
2023-05-19T09:25:51.922Z,1.52
2023-05-19T09:28:30.541Z,1.60
2023-05-19T09:31:08.419Z,1.80
2023-05-19T09:33:36.618Z,1.75
2023-05-19T09:36:06.073Z,1.65
2023-05-19T09:38:32.706Z,1.33
2023-05-19T09:41:01.019Z,1.40
2023-05-19T09:43:33.332Z,1.45
2023-05-19T09:46:07.884Z,1.38
2023-05-19T09:48:36.370Z,1.00
2023-05-19T09:51:05.286Z,1.30
2023-05-19T09:56:01.942Z,1.30
2023-05-19T09:58:37.058Z,1.27
2023-05-19T10:01:04.805Z,1.30
2023-05-19T10:03:34.992Z,1.13
2023-05-19T10:06:03.781Z,1.50
2023-05-19T10:10:59.131Z,1.60
2023-05-19T10:13:26.966Z,1.55
2023-05-19T10:15:58.813Z,1.10
2023-05-19T10:18:28.653Z,1.35
2023-05-19T10:20:57.716Z,1.17
2023-05-19T10:23:24.346Z,1.30
2023-05-19T10:25:54.759Z,1.10
2023-05-19T10:28:25.850Z,1.35
2023-05-19T10:30:56.665Z,1.30
2023-05-19T10:33:37.146Z,0.93
2023-05-19T10:36:45.748Z,1.15
2023-05-19T10:39:19.347Z,1.17
2023-05-19T10:42:11.291Z,0.90
2023-05-19T10:45:02.578Z,1.10
2023-05-19T10:47:29.805Z,1.00
2023-05-19T10:49:56.819Z,1.10
2023-05-19T10:52:26.460Z,1.10
2023-05-19T10:54:54.615Z,1.00
2023-05-19T10:57:33.127Z,1.00
2023-05-19T11:00:11.677Z,1.30
2023-05-19T11:02:42.616Z,1.25
2023-05-19T11:05:16.632Z,1.08
2023-05-19T11:08:02.502Z,1.15
2023-05-19T11:10:29.278Z,1.00
2023-05-19T11:15:27.440Z,0.85
2023-05-19T11:17:54.820Z,1.08
2023-05-19T11:20:26.886Z,1.10
2023-05-19T11:23:11.088Z,1.38
2023-05-19T11:25:44.195Z,1.20
2023-05-19T11:28:14.703Z,1.27
2023-05-19T11:30:43.523Z,1.40
2023-05-19T11:33:10.592Z,1.20
2023-05-19T11:35:38.510Z,1.30
2023-05-19T11:38:06.659Z,1.02
2023-05-19T11:40:33.417Z,1.05
2023-05-19T11:43:01.776Z,1.05
2023-05-19T11:45:31.607Z,1.20
2023-05-19T11:48:02.712Z,1.40
2023-05-19T11:50:31.284Z,1.10
2023-05-19T11:53:01.095Z,1.40
2023-05-19T11:55:28.193Z,1.40
2023-05-19T11:58:04.564Z,1.30
2023-05-19T12:00:39.861Z,1.40
2023-05-19T12:03:07.399Z,1.25
2023-05-19T12:05:40.774Z,1.63
2023-05-19T12:08:08.870Z,1.80
2023-05-19T12:10:37.667Z,1.50
2023-05-19T12:13:10.132Z,1.67
2023-05-19T12:15:37.962Z,1.60
2023-05-19T12:18:04.639Z,1.58
2023-05-19T12:20:36.146Z,1.40
2023-05-19T12:23:03.594Z,1.70
2023-05-19T12:25:31.359Z,1.60
2023-05-19T12:28:04.802Z,1.67
2023-05-19T12:30:38.015Z,1.45
2023-05-19T12:33:04.923Z,1.63
2023-05-19T12:35:36.036Z,1.70
2023-05-19T12:38:04.423Z,1.88
2023-05-19T12:40:31.103Z,1.63
2023-05-19T12:43:00.969Z,2.08
2023-05-19T12:45:28.676Z,1.85
2023-05-19T12:47:55.945Z,1.80
2023-05-19T12:50:30.175Z,1.95
2023-05-19T12:52:59.719Z,1.73
2023-05-19T12:55:26.343Z,1.80
2023-05-19T12:57:56.642Z,1.40
2023-05-19T13:00:32.212Z,1.50
2023-05-19T13:03:06.755Z,1.58
2023-05-19T13:05:37.112Z,1.60
2023-05-19T13:08:12.117Z,1.40
2023-05-19T13:10:40.271Z,1.20
2023-05-19T13:13:08.033Z,1.50
2023-05-19T13:15:40.170Z,1.60
2023-05-19T13:18:09.121Z,1.45
2023-05-19T13:20:37.372Z,1.63
2023-05-19T13:23:04.817Z,1.27
2023-05-19T13:25:33.962Z,1.35
2023-05-19T13:28:03.658Z,1.15
2023-05-19T13:30:32.010Z,1.38
2023-05-19T13:35:25.160Z,1.30
2023-05-19T13:37:51.609Z,1.50
2023-05-19T13:40:18.867Z,1.40
2023-05-19T13:42:45.733Z,1.52
2023-05-19T13:45:12.686Z,1.60
2023-05-19T13:47:39.470Z,1.95
2023-05-19T13:50:06.603Z,1.70
2023-05-19T13:52:33.463Z,1.27
2023-05-19T13:54:59.974Z,1.50
2023-05-19T13:57:26.527Z,1.60
2023-05-19T14:00:02.525Z,1.40
2023-05-19T14:02:30.772Z,1.40
2023-05-19T14:04:57.564Z,1.77
2023-05-19T14:07:24.165Z,1.40
2023-05-19T14:09:51.923Z,1.50
2023-05-19T14:12:18.672Z,1.10
2023-05-19T14:14:45.825Z,1.60
2023-05-19T14:17:12.314Z,1.60
2023-05-19T14:19:38.896Z,1.45
2023-05-19T14:22:05.548Z,1.67
2023-05-19T14:24:32.152Z,1.58
2023-05-19T14:26:58.773Z,1.65
2023-05-19T14:29:25.319Z,1.20
2023-05-19T14:31:51.840Z,1.67
2023-05-19T14:34:21.076Z,1.60
2023-05-19T14:36:49.007Z,1.50
2023-05-19T14:39:15.794Z,1.52
2023-05-19T14:41:42.376Z,1.60
2023-05-19T14:44:08.873Z,1.70
2023-05-19T14:46:35.966Z,1.40
2023-05-19T14:49:03.287Z,1.45
2023-05-19T14:51:29.731Z,1.30
2023-05-19T14:53:56.237Z,1.60
2023-05-19T14:56:22.750Z,1.40
2023-05-19T14:58:49.299Z,1.65
2023-05-19T15:01:15.793Z,1.27
2023-05-19T15:03:42.420Z,1.50
2023-05-19T15:06:11.261Z,1.30
2023-05-19T15:08:38.268Z,1.50
2023-05-19T15:11:04.976Z,1.60
2023-05-19T15:13:31.477Z,1.70
2023-05-19T15:16:15.026Z,1.60
2023-05-19T15:18:42.478Z,1.30
2023-05-19T15:21:09.087Z,1.52
2023-05-19T15:23:35.608Z,1.40
2023-05-19T15:26:02.122Z,1.70
2023-05-19T15:28:28.714Z,1.50
2023-05-19T15:30:55.360Z,1.50
2023-05-19T15:33:21.882Z,1.52
2023-05-19T15:35:51.704Z,1.70
2023-05-19T15:38:21.388Z,1.40
2023-05-19T15:40:48.030Z,1.35
2023-05-19T15:43:14.749Z,1.40
2023-05-19T15:45:41.936Z,1.23
2023-05-19T15:48:08.712Z,1.20
2023-05-19T15:50:36.144Z,1.30
2023-05-19T15:53:03.329Z,1.33
2023-05-19T15:55:29.877Z,1.30
2023-05-19T15:57:56.388Z,1.25
2023-05-19T16:00:23.643Z,1.52
2023-05-19T16:02:50.188Z,1.70
2023-05-19T16:05:16.803Z,1.23
2023-05-19T16:07:45.465Z,1.20
2023-05-19T16:10:12.107Z,1.15
2023-05-19T16:12:38.665Z,1.40
2023-05-19T16:15:05.722Z,1.48
2023-05-19T16:17:32.356Z,1.40
2023-05-19T16:19:58.792Z,1.60
2023-05-19T16:22:25.485Z,1.25
2023-05-19T16:24:52.295Z,1.42
2023-05-19T16:27:19.044Z,1.30
2023-05-19T16:29:45.654Z,1.00
2023-05-19T16:32:12.614Z,1.40
2023-05-19T16:34:39.680Z,1.30
2023-05-19T16:37:06.676Z,1.30
2023-05-19T16:39:36.362Z,1.38
2023-05-19T16:42:06.201Z,1.40
2023-05-19T16:44:32.667Z,1.40
2023-05-19T16:46:59.207Z,0.93
2023-05-19T16:49:25.698Z,1.30
2023-05-19T16:51:53.144Z,1.30
2023-05-19T16:54:19.878Z,1.50
2023-05-19T16:56:46.469Z,1.58
2023-05-19T16:59:13.146Z,1.67
2023-05-19T17:01:39.765Z,1.60
2023-05-19T17:04:06.427Z,1.50
2023-05-19T17:06:32.966Z,1.70
2023-05-19T17:08:59.492Z,1.65
2023-05-19T17:11:27.176Z,1.48
2023-05-19T17:13:53.800Z,1.77
2023-05-19T17:16:20.404Z,1.27
2023-05-19T17:18:48.011Z,1.40
2023-05-19T17:21:14.759Z,1.30
2023-05-19T17:23:41.560Z,1.42
2023-05-19T17:26:08.816Z,1.30
2023-05-19T17:28:35.672Z,1.60
2023-05-19T17:31:09.828Z,1.63
2023-05-19T17:33:36.443Z,1.38
2023-05-19T17:36:04.400Z,1.17
2023-05-19T17:38:32.308Z,1.33
2023-05-19T17:41:02.431Z,1.42
2023-05-19T17:43:29.044Z,1.45
2023-05-19T17:45:55.716Z,1.40
2023-05-19T17:48:22.197Z,1.48
2023-05-19T17:50:49.207Z,1.45
2023-05-19T17:53:16.662Z,1.60
2023-05-19T17:55:50.657Z,1.30
2023-05-19T17:58:20.132Z,1.48
2023-05-19T18:00:46.754Z,1.10
2023-05-19T18:03:13.680Z,1.50
2023-05-19T18:05:43.219Z,1.38
2023-05-19T18:08:10.775Z,1.70
2023-05-19T18:10:39.494Z,1.50
2023-05-19T18:15:33.122Z,1.52
2023-05-19T18:17:59.919Z,1.75
2023-05-19T18:20:26.472Z,1.73
2023-05-19T18:22:53.040Z,1.55
2023-05-19T18:25:20.759Z,1.63
2023-05-19T18:27:47.479Z,1.70
2023-05-19T18:30:13.999Z,1.60
2023-05-19T18:32:40.651Z,1.50
2023-05-19T18:35:08.158Z,2.10
2023-05-19T18:37:34.889Z,1.55
2023-05-19T18:40:01.459Z,1.80
2023-05-19T18:42:27.933Z,1.75
2023-05-19T18:44:54.475Z,2.10
2023-05-19T18:47:22.729Z,1.95
2023-05-19T18:49:49.302Z,2.08
2023-05-19T18:52:15.874Z,1.70
2023-05-19T18:54:42.342Z,2.28
2023-05-19T18:57:09.114Z,1.90
2023-05-19T18:59:35.838Z,1.80
2023-05-19T19:02:03.170Z,2.03
2023-05-19T19:04:29.915Z,1.55
2023-05-19T19:06:56.593Z,1.70
2023-05-19T19:09:23.128Z,1.77
2023-05-19T19:11:49.622Z,1.63
2023-05-19T19:14:16.160Z,2.10
2023-05-19T19:16:42.772Z,2.20
2023-05-19T19:19:09.936Z,1.80
2023-05-19T19:21:36.599Z,1.85
2023-05-19T19:24:03.236Z,2.00
2023-05-19T19:26:29.667Z,2.10
2023-05-19T19:28:56.833Z,2.08
2023-05-19T19:31:25.733Z,2.10
2023-05-19T19:33:52.255Z,2.20
2023-05-19T19:36:18.754Z,2.10
2023-05-19T19:38:45.315Z,2.10
2023-05-19T19:41:11.883Z,2.10
2023-05-19T19:43:38.395Z,1.77
2023-05-19T19:46:06.977Z,2.00
2023-05-19T19:48:33.491Z,2.08
2023-05-19T19:50:59.985Z,2.10
2023-05-19T19:53:26.592Z,2.15
2023-05-19T19:56:00.514Z,2.30
2023-05-19T19:58:27.898Z,2.40
2023-05-19T20:00:59.093Z,2.25
2023-05-19T20:03:26.240Z,2.10
2023-05-19T20:05:55.176Z,2.17
2023-05-19T20:08:22.456Z,2.30
2023-05-19T20:10:49.281Z,2.00
2023-05-19T20:13:16.295Z,2.40
2023-05-19T20:15:43.492Z,2.80
2023-05-19T20:18:10.908Z,2.40
2023-05-19T20:20:41.058Z,2.17
2023-05-19T20:23:07.956Z,2.50
2023-05-19T20:25:47.677Z,2.63
2023-05-19T20:28:26.357Z,2.58
2023-05-19T20:30:52.875Z,2.03
2023-05-19T20:33:19.435Z,2.20
2023-05-19T20:35:45.900Z,2.22
2023-05-19T20:38:12.469Z,2.05
2023-05-19T20:40:38.989Z,2.80
2023-05-19T20:43:05.686Z,2.13
2023-05-19T20:45:32.614Z,2.35
2023-05-19T20:47:59.521Z,2.40
2023-05-19T20:50:26.231Z,2.17
2023-05-19T20:52:52.728Z,2.05
2023-05-19T20:55:19.271Z,2.38
2023-05-19T20:57:45.895Z,2.55
2023-05-19T21:00:13.050Z,2.33
2023-05-19T21:02:39.546Z,2.20
2023-05-19T21:05:06.528Z,2.45
2023-05-19T21:07:33.178Z,2.67
2023-05-19T21:09:59.712Z,2.45
2023-05-19T21:12:33.796Z,2.42
2023-05-19T21:15:03.123Z,2.20
2023-05-19T21:17:29.797Z,2.30
2023-05-19T21:20:02.204Z,2.35
2023-05-19T21:22:32.107Z,2.50
2023-05-19T21:24:58.613Z,2.42
2023-05-19T21:27:25.174Z,2.63
2023-05-19T21:29:54.870Z,2.58
2023-05-19T21:32:21.999Z,2.20
2023-05-19T21:34:48.501Z,2.10
2023-05-19T21:37:17.152Z,2.50
2023-05-19T21:39:43.991Z,2.60
2023-05-19T21:42:10.447Z,2.55
2023-05-19T21:44:37.035Z,2.50
2023-05-19T21:47:03.564Z,2.50
2023-05-19T21:49:31.187Z,2.47
2023-05-19T21:51:57.844Z,2.30
2023-05-19T21:54:24.469Z,2.25
2023-05-19T21:56:50.936Z,2.83
2023-05-19T21:59:17.457Z,2.60
2023-05-19T22:01:44.194Z,2.38
2023-05-19T22:04:11.350Z,2.63
2023-05-19T22:06:37.906Z,2.90
2023-05-19T22:09:04.406Z,3.13
2023-05-19T22:11:31.623Z,2.78
2023-05-19T22:13:58.205Z,3.00
2023-05-19T22:16:24.816Z,2.90
2023-05-19T22:18:51.666Z,2.75
2023-05-19T22:21:18.531Z,3.15
2023-05-19T22:23:45.123Z,3.30
2023-05-19T22:26:11.646Z,3.05
2023-05-19T22:28:38.349Z,3.15
2023-05-19T22:31:05.003Z,3.17
2023-05-19T22:33:31.562Z,3.20
2023-05-19T22:35:57.996Z,2.90
2023-05-19T22:38:24.553Z,3.13
2023-05-19T22:40:51.095Z,3.22
2023-05-19T22:43:17.666Z,3.95
2023-05-19T22:45:44.269Z,3.72
2023-05-19T22:48:11.444Z,3.40
2023-05-19T22:50:37.973Z,3.70
2023-05-19T22:53:04.468Z,3.95
2023-05-19T22:55:31.020Z,3.78
2023-05-19T22:57:57.502Z,3.50
2023-05-19T23:00:24.094Z,3.63
2023-05-19T23:02:51.320Z,3.38
2023-05-19T23:05:17.752Z,3.97
2023-05-19T23:07:44.611Z,3.72
2023-05-19T23:10:11.258Z,3.60
2023-05-19T23:12:37.825Z,3.85
2023-05-19T23:15:04.753Z,3.53
2023-05-19T23:17:31.343Z,3.90
2023-05-19T23:19:57.826Z,3.72
2023-05-19T23:22:24.306Z,3.70
2023-05-19T23:24:50.799Z,3.53
2023-05-19T23:27:17.301Z,3.72
2023-05-19T23:29:47.623Z,3.67
2023-05-19T23:32:14.307Z,3.60
2023-05-19T23:34:40.805Z,4.13
2023-05-19T23:37:07.734Z,3.90
2023-05-19T23:39:34.380Z,3.78
2023-05-19T23:42:00.820Z,3.88
2023-05-19T23:44:27.298Z,3.42
2023-05-19T23:46:53.793Z,3.60
2023-05-19T23:49:20.428Z,3.53
2023-05-19T23:51:47.193Z,3.50
2023-05-19T23:54:13.690Z,3.85
2023-05-19T23:56:40.193Z,3.35
2023-05-19T23:59:07.039Z,4.40
